createdAt,value
2022-08-21T00:02:17.133Z,3.38
2022-08-21T00:04:55.850Z,3.33
2022-08-21T00:07:26.508Z,3.10
2022-08-21T00:09:55.215Z,3.35
2022-08-21T00:12:23.789Z,3.63
2022-08-21T00:14:57.044Z,3.33
2022-08-21T00:17:26.654Z,3.30
2022-08-21T00:19:54.807Z,3.95
2022-08-21T00:22:23.260Z,4.00
2022-08-21T00:24:51.431Z,3.33
2022-08-21T00:27:19.579Z,3.65
2022-08-21T00:29:47.673Z,3.25
2022-08-21T00:32:22.031Z,3.33
2022-08-21T00:34:50.141Z,3.78
2022-08-21T00:37:18.353Z,3.78
2022-08-21T00:39:46.704Z,3.40
2022-08-21T00:42:15.950Z,3.55
2022-08-21T00:44:44.791Z,3.65
2022-08-21T00:47:13.606Z,3.78
2022-08-21T00:49:43.533Z,3.25
2022-08-21T00:52:16.364Z,3.55
2022-08-21T00:54:46.467Z,3.20
2022-08-21T00:57:19.294Z,3.42
2022-08-21T00:59:51.635Z,3.75
2022-08-21T01:02:21.142Z,3.60
2022-08-21T01:04:51.247Z,4.00
2022-08-21T01:07:21.008Z,3.90
2022-08-21T01:09:51.083Z,3.75
2022-08-21T01:12:19.681Z,3.47
2022-08-21T01:14:48.800Z,3.58
2022-08-21T01:17:18.693Z,3.60
2022-08-21T01:19:46.839Z,3.83
2022-08-21T01:22:16.381Z,3.85
2022-08-21T01:24:44.449Z,3.60
2022-08-21T01:27:12.756Z,3.58
2022-08-21T01:29:47.276Z,3.95
2022-08-21T01:32:18.454Z,3.53
2022-08-21T01:34:48.236Z,3.90
2022-08-21T01:37:19.486Z,3.72
2022-08-21T01:39:48.252Z,3.92
2022-08-21T01:42:16.842Z,4.03
2022-08-21T01:44:45.233Z,3.55
2022-08-21T01:47:15.609Z,3.65
2022-08-21T01:49:47.031Z,4.35
2022-08-21T01:52:15.554Z,4.60
2022-08-21T01:54:45.090Z,3.97
2022-08-21T01:57:19.453Z,4.22
2022-08-21T01:59:47.588Z,4.40
2022-08-21T02:02:15.701Z,4.00
2022-08-21T02:04:43.836Z,3.72
2022-08-21T02:07:13.121Z,4.20
2022-08-21T02:09:43.137Z,4.35
2022-08-21T02:12:13.429Z,4.00
2022-08-21T02:14:41.611Z,3.53
2022-08-21T02:17:10.028Z,4.15
2022-08-21T02:19:40.530Z,4.32
2022-08-21T02:22:09.569Z,4.13
2022-08-21T02:24:53.806Z,3.72
2022-08-21T02:27:27.306Z,4.10
2022-08-21T02:29:57.738Z,4.43
2022-08-21T02:32:27.018Z,4.72
2022-08-21T02:34:55.424Z,4.50
2022-08-21T02:37:23.832Z,4.55
2022-08-21T02:39:52.034Z,4.28
2022-08-21T02:42:20.648Z,4.18
2022-08-21T02:44:50.165Z,3.88
2022-08-21T02:47:18.360Z,4.07
2022-08-21T02:49:46.507Z,4.22
2022-08-21T02:52:15.677Z,4.22
2022-08-21T02:54:44.214Z,4.22
2022-08-21T02:57:12.323Z,4.53
2022-08-21T02:59:41.683Z,4.03
2022-08-21T03:02:12.517Z,4.53
2022-08-21T03:04:44.623Z,4.00
2022-08-21T03:07:16.382Z,4.28
2022-08-21T03:09:55.183Z,4.22
2022-08-21T03:12:24.161Z,4.03
2022-08-21T03:14:52.407Z,3.50
2022-08-21T03:17:29.891Z,3.90
2022-08-21T03:19:58.956Z,4.63
2022-08-21T03:22:27.921Z,4.03
2022-08-21T03:27:28.763Z,3.67
2022-08-21T03:29:58.955Z,3.88
2022-08-21T03:32:28.711Z,3.88
2022-08-21T03:34:56.809Z,3.72
2022-08-21T03:37:26.013Z,3.92
2022-08-21T03:39:54.410Z,3.88
2022-08-21T03:42:22.637Z,3.45
2022-08-21T03:44:51.016Z,4.18
2022-08-21T03:47:19.378Z,3.60
2022-08-21T03:49:48.900Z,3.83
2022-08-21T03:52:17.994Z,4.05
2022-08-21T03:54:46.849Z,4.15
2022-08-21T03:57:15.564Z,4.53
2022-08-21T03:59:43.856Z,4.05
2022-08-21T04:02:12.695Z,3.78
2022-08-21T04:04:40.828Z,4.30
2022-08-21T04:07:10.290Z,4.60
2022-08-21T04:09:38.508Z,3.60
2022-08-21T04:12:07.046Z,4.38
2022-08-21T04:14:35.194Z,3.70
2022-08-21T04:17:03.310Z,4.35
2022-08-21T04:19:31.462Z,4.05
2022-08-21T04:22:00.338Z,3.60
2022-08-21T04:24:30.071Z,3.50
2022-08-21T04:26:58.167Z,4.03
2022-08-21T04:29:26.279Z,4.00
2022-08-21T04:31:54.453Z,3.80
2022-08-21T04:34:22.595Z,3.88
2022-08-21T04:36:50.714Z,4.00
2022-08-21T04:39:18.879Z,4.03
2022-08-21T04:41:50.306Z,3.90
2022-08-21T04:44:18.850Z,4.00
2022-08-21T04:46:46.980Z,4.13
2022-08-21T04:49:15.136Z,5.22
2022-08-21T04:51:43.531Z,4.07
2022-08-21T04:54:15.586Z,3.78
2022-08-21T04:56:47.534Z,4.03
2022-08-21T05:01:48.232Z,3.40
2022-08-21T05:04:20.860Z,4.32
2022-08-21T05:06:50.399Z,4.25
2022-08-21T05:09:21.371Z,4.65
2022-08-21T05:11:49.824Z,3.60
2022-08-21T05:14:20.335Z,4.35
2022-08-21T05:16:48.961Z,4.25
2022-08-21T05:19:17.490Z,3.47
2022-08-21T05:21:48.409Z,4.20
2022-08-21T05:24:17.028Z,4.33
2022-08-21T05:26:46.615Z,4.88
2022-08-21T05:29:17.040Z,4.32
2022-08-21T05:31:48.941Z,4.03
2022-08-21T05:34:22.456Z,4.63
2022-08-21T05:36:50.802Z,4.03
2022-08-21T05:39:19.565Z,5.07
2022-08-21T05:41:48.697Z,4.28
2022-08-21T05:44:16.837Z,4.47
2022-08-21T05:46:45.103Z,4.50
2022-08-21T05:49:14.777Z,4.50
2022-08-21T05:51:43.431Z,4.38
2022-08-21T05:54:12.115Z,4.75
2022-08-21T05:56:40.285Z,5.22
2022-08-21T05:59:08.951Z,4.60
2022-08-21T06:01:37.808Z,4.65
2022-08-21T06:04:06.433Z,4.40
2022-08-21T06:06:36.005Z,4.90
2022-08-21T06:09:05.574Z,5.20
2022-08-21T06:11:34.467Z,4.32
2022-08-21T06:14:03.073Z,4.10
2022-08-21T06:16:31.371Z,3.75
2022-08-21T06:19:02.897Z,4.18
2022-08-21T06:24:00.787Z,4.70
2022-08-21T06:26:29.049Z,4.35
2022-08-21T06:28:57.611Z,4.45
2022-08-21T06:31:28.192Z,4.65
2022-08-21T06:33:57.263Z,4.38
2022-08-21T06:36:25.801Z,4.75
2022-08-21T06:38:53.979Z,4.32
2022-08-21T06:41:27.078Z,4.07
2022-08-21T06:43:56.448Z,4.43
2022-08-21T06:46:25.168Z,4.35
2022-08-21T06:48:53.425Z,4.78
2022-08-21T06:51:21.925Z,4.18
2022-08-21T06:53:50.434Z,4.65
2022-08-21T06:56:18.595Z,3.70
2022-08-21T06:58:48.287Z,4.20
2022-08-21T07:01:16.761Z,4.32
2022-08-21T07:03:45.570Z,4.18
2022-08-21T07:06:13.903Z,4.40
2022-08-21T07:08:42.275Z,4.13
2022-08-21T07:11:15.231Z,4.57
2022-08-21T07:13:43.364Z,4.13
2022-08-21T07:16:13.090Z,4.57
2022-08-21T07:18:41.275Z,4.72
2022-08-21T07:21:10.689Z,4.88
2022-08-21T07:23:41.697Z,4.95
2022-08-21T07:28:38.743Z,4.55
2022-08-21T07:31:07.713Z,5.00
2022-08-21T07:33:37.555Z,4.57
2022-08-21T07:36:06.726Z,4.80
2022-08-21T07:38:35.119Z,4.72
2022-08-21T07:41:04.814Z,4.72
2022-08-21T07:43:32.911Z,4.72
2022-08-21T07:46:01.397Z,4.82
2022-08-21T07:48:29.573Z,3.90
2022-08-21T07:51:08.310Z,3.78
2022-08-21T07:53:36.719Z,4.78
2022-08-21T07:56:06.199Z,4.65
2022-08-21T07:58:34.574Z,3.88
2022-08-21T08:01:02.858Z,3.85
2022-08-21T08:03:31.075Z,4.28
2022-08-21T08:06:00.634Z,4.55
2022-08-21T08:08:29.299Z,3.83
2022-08-21T08:10:59.769Z,3.85
2022-08-21T08:13:28.245Z,3.97
2022-08-21T08:15:56.353Z,3.47
2022-08-21T08:18:24.623Z,4.70
2022-08-21T08:20:53.255Z,4.50
2022-08-21T08:23:24.041Z,3.33
2022-08-21T08:25:52.367Z,2.90
2022-08-21T08:28:20.530Z,3.00
2022-08-21T08:30:50.226Z,3.20
2022-08-21T08:33:19.126Z,3.55
2022-08-21T08:35:49.858Z,3.35
2022-08-21T08:38:20.933Z,2.95
2022-08-21T08:41:01.061Z,4.40
2022-08-21T08:43:31.606Z,3.08
2022-08-21T08:46:03.409Z,2.78
2022-08-21T08:48:43.171Z,2.70
2022-08-21T08:51:17.565Z,3.38
2022-08-21T08:53:52.961Z,2.70
2022-08-21T08:56:30.393Z,3.53
2022-08-21T08:59:02.732Z,3.28
2022-08-21T09:01:38.801Z,3.28
2022-08-21T09:04:07.719Z,2.90
2022-08-21T09:06:48.368Z,3.00
2022-08-21T09:09:31.743Z,3.10
2022-08-21T09:12:06.330Z,2.45
2022-08-21T09:14:52.675Z,2.42
2022-08-21T09:17:37.391Z,2.63
2022-08-21T09:20:20.833Z,2.60
2022-08-21T09:23:04.496Z,2.80
2022-08-21T09:25:36.618Z,2.92
2022-08-21T09:28:09.386Z,2.65
2022-08-21T09:30:37.435Z,2.75
2022-08-21T09:33:05.604Z,2.75
2022-08-21T09:35:36.158Z,2.50
2022-08-21T09:38:08.658Z,2.57
2022-08-21T09:40:40.766Z,2.03
2022-08-21T09:43:20.144Z,3.28
2022-08-21T09:45:50.568Z,2.38
2022-08-21T09:48:22.479Z,2.22
2022-08-21T09:50:56.616Z,2.20
2022-08-21T09:53:27.368Z,2.08
2022-08-21T09:56:15.869Z,2.25
2022-08-21T09:58:48.608Z,2.55
2022-08-21T10:01:19.925Z,2.35
2022-08-21T10:03:51.724Z,2.50
2022-08-21T10:06:28.773Z,2.40
2022-08-21T10:09:07.762Z,2.88
2022-08-21T10:11:36.529Z,2.40
2022-08-21T10:14:14.696Z,2.15
2022-08-21T10:16:54.337Z,2.15
2022-08-21T10:19:32.410Z,2.85
2022-08-21T10:22:09.807Z,2.28
2022-08-21T10:24:51.169Z,2.55
2022-08-21T10:27:31.138Z,2.20
2022-08-21T10:30:05.939Z,2.80
2022-08-21T10:32:51.124Z,2.10
2022-08-21T10:35:24.680Z,2.25
2022-08-21T10:38:28.144Z,1.83
2022-08-21T10:41:08.215Z,2.20
2022-08-21T10:43:42.347Z,1.98
2022-08-21T10:46:19.934Z,1.70
2022-08-21T10:48:51.852Z,2.10
2022-08-21T10:51:40.290Z,2.28
2022-08-21T10:54:18.191Z,2.03
2022-08-21T10:56:53.204Z,1.98
2022-08-21T10:59:29.033Z,2.10
2022-08-21T11:02:03.422Z,2.15
2022-08-21T11:04:49.595Z,2.10
2022-08-21T11:07:24.034Z,1.85
2022-08-21T11:09:56.307Z,2.08
2022-08-21T11:12:29.677Z,2.08
2022-08-21T11:15:03.558Z,2.00
2022-08-21T11:17:38.392Z,1.67
2022-08-21T11:20:10.821Z,2.20
2022-08-21T11:22:47.315Z,2.08
2022-08-21T11:25:23.390Z,1.90
2022-08-21T11:27:58.506Z,8.20
2022-08-21T11:30:33.867Z,3.30
2022-08-21T11:33:21.232Z,2.40
2022-08-21T11:35:53.492Z,2.13
2022-08-21T11:38:31.230Z,3.35
2022-08-21T11:41:16.107Z,3.15
2022-08-21T11:43:46.700Z,2.22
2022-08-21T11:46:27.625Z,1.90
2022-08-21T11:49:21.860Z,2.20
2022-08-21T11:51:57.937Z,2.20
2022-08-21T11:54:35.351Z,1.70
2022-08-21T11:57:07.623Z,2.17
2022-08-21T11:59:47.235Z,1.83
2022-08-21T12:02:18.642Z,1.85
2022-08-21T12:07:31.013Z,2.00
2022-08-21T12:10:01.261Z,1.67
2022-08-21T12:12:31.611Z,2.17
2022-08-21T12:15:15.248Z,1.75
2022-08-21T12:17:56.183Z,1.73
2022-08-21T12:20:50.107Z,2.03
2022-08-21T12:23:26.998Z,2.38
2022-08-21T12:26:22.571Z,1.63
2022-08-21T12:28:51.013Z,2.20
2022-08-21T12:31:25.508Z,1.52
2022-08-21T12:33:57.892Z,1.92
2022-08-21T12:36:41.703Z,2.05
2022-08-21T12:39:16.299Z,1.80
2022-08-21T12:41:50.241Z,2.80
2022-08-21T12:44:24.192Z,2.15
2022-08-21T12:46:58.096Z,2.42
2022-08-21T12:49:32.813Z,2.17
2022-08-21T12:52:09.746Z,7.47
2022-08-21T12:54:41.880Z,2.55
2022-08-21T12:57:19.112Z,2.30
2022-08-21T12:59:47.221Z,2.10
2022-08-21T13:02:20.850Z,2.08
2022-08-21T13:04:50.112Z,2.17
2022-08-21T13:07:33.149Z,1.58
2022-08-21T13:10:05.932Z,1.63
2022-08-21T13:12:35.056Z,1.50
2022-08-21T13:15:08.704Z,2.00
2022-08-21T13:17:41.055Z,2.17
2022-08-21T13:20:12.074Z,1.70
2022-08-21T13:22:44.959Z,1.55
2022-08-21T13:25:14.996Z,1.50
2022-08-21T13:27:48.606Z,1.90
2022-08-21T13:30:23.138Z,1.60
2022-08-21T13:32:53.357Z,1.80
2022-08-21T13:35:23.894Z,1.55
2022-08-21T13:37:53.999Z,1.67
2022-08-21T13:40:26.771Z,1.85
2022-08-21T13:42:55.806Z,1.73
2022-08-21T13:45:29.578Z,1.40
2022-08-21T13:47:57.898Z,1.58
2022-08-21T13:50:27.784Z,1.58
2022-08-21T13:53:04.902Z,1.60
2022-08-21T13:55:43.695Z,1.77
2022-08-21T13:58:13.201Z,1.80
2022-08-21T14:00:48.850Z,1.73
2022-08-21T14:03:29.546Z,1.55
2022-08-21T14:06:00.467Z,1.25
2022-08-21T14:08:35.278Z,1.42
2022-08-21T14:11:05.810Z,1.50
2022-08-21T14:13:40.412Z,1.20
2022-08-21T14:16:17.298Z,1.50
2022-08-21T14:18:47.647Z,1.45
2022-08-21T14:21:15.806Z,1.35
2022-08-21T14:23:45.449Z,1.40
2022-08-21T14:26:13.550Z,1.48
2022-08-21T14:28:43.437Z,1.30
2022-08-21T14:31:17.967Z,1.33
2022-08-21T14:33:47.949Z,1.70
2022-08-21T14:36:16.467Z,1.50
2022-08-21T14:38:45.938Z,1.65
2022-08-21T14:41:19.426Z,1.70
2022-08-21T14:43:55.761Z,1.55
2022-08-21T14:46:36.294Z,1.48
2022-08-21T14:49:09.040Z,1.42
2022-08-21T14:51:37.352Z,1.50
2022-08-21T14:54:30.586Z,1.35
2022-08-21T14:57:02.774Z,1.58
2022-08-21T14:59:32.915Z,1.67
2022-08-21T15:02:01.239Z,1.38
2022-08-21T15:04:29.742Z,1.33
2022-08-21T15:06:57.987Z,1.05
2022-08-21T15:09:27.587Z,1.20
2022-08-21T15:11:59.036Z,1.10
2022-08-21T15:16:56.436Z,1.30
2022-08-21T15:19:24.764Z,1.13
2022-08-21T15:21:52.977Z,1.10
2022-08-21T15:24:21.059Z,1.10
2022-08-21T15:26:50.918Z,1.38
2022-08-21T15:29:22.495Z,1.40
2022-08-21T15:31:57.682Z,0.85
2022-08-21T15:34:27.325Z,1.00
2022-08-21T15:36:57.226Z,1.07
2022-08-21T15:39:31.034Z,1.33
2022-08-21T15:42:06.196Z,1.10
2022-08-21T15:44:39.554Z,1.23
2022-08-21T15:47:08.881Z,1.15
2022-08-21T15:49:37.628Z,1.40
2022-08-21T15:52:05.753Z,1.23
2022-08-21T15:54:33.891Z,1.00
2022-08-21T15:57:03.465Z,1.08
2022-08-21T15:59:34.912Z,0.88
2022-08-21T16:04:31.019Z,1.45
2022-08-21T16:07:04.350Z,0.93
2022-08-21T16:09:35.878Z,1.13
2022-08-21T16:12:06.875Z,0.98
2022-08-21T16:14:37.648Z,1.33
2022-08-21T16:17:06.735Z,2.20
2022-08-21T16:19:35.523Z,4.30
2022-08-21T16:22:03.824Z,3.58
2022-08-21T16:24:32.115Z,1.90
2022-08-21T16:27:02.552Z,1.90
2022-08-21T16:29:36.602Z,1.50
2022-08-21T16:32:06.358Z,1.10
2022-08-21T16:34:35.121Z,1.30
2022-08-21T16:37:03.452Z,1.20
2022-08-21T16:39:31.827Z,1.50
2022-08-21T16:42:00.378Z,1.42
2022-08-21T16:44:30.123Z,1.00
2022-08-21T16:47:00.603Z,1.80
2022-08-21T16:49:28.789Z,1.23
2022-08-21T16:51:57.089Z,1.00
2022-08-21T16:54:25.451Z,1.90
2022-08-21T16:56:54.502Z,1.42
2022-08-21T16:59:22.790Z,1.00
2022-08-21T17:01:51.990Z,1.00
2022-08-21T17:04:25.909Z,1.60
2022-08-21T17:06:54.987Z,1.13
2022-08-21T17:09:23.079Z,1.80
2022-08-21T17:11:51.383Z,1.00
2022-08-21T17:14:22.823Z,1.00
2022-08-21T17:19:21.678Z,1.10
2022-08-21T17:21:49.772Z,0.60
2022-08-21T17:24:17.922Z,1.00
2022-08-21T17:26:47.121Z,1.05
2022-08-21T17:29:16.412Z,1.10
2022-08-21T17:31:45.328Z,1.42
2022-08-21T17:34:15.710Z,1.70
2022-08-21T17:36:47.360Z,1.52
2022-08-21T17:39:22.314Z,1.77
2022-08-21T17:41:58.173Z,1.58
2022-08-21T17:44:27.101Z,1.08
2022-08-21T17:46:55.352Z,0.80
2022-08-21T17:49:24.175Z,0.98
2022-08-21T17:51:53.921Z,1.02
2022-08-21T17:54:22.045Z,1.00
2022-08-21T17:56:50.139Z,1.40
2022-08-21T17:59:18.472Z,0.90
2022-08-21T18:01:48.153Z,0.80
2022-08-21T18:04:16.903Z,0.82
2022-08-21T18:06:46.036Z,0.90
2022-08-21T18:09:15.540Z,0.90
2022-08-21T18:11:44.796Z,0.98
2022-08-21T18:14:13.497Z,0.88
2022-08-21T18:16:41.960Z,1.20
2022-08-21T18:19:15.351Z,0.82
2022-08-21T18:21:43.582Z,1.00
2022-08-21T18:24:11.707Z,1.13
2022-08-21T18:26:42.570Z,1.75
2022-08-21T18:29:13.530Z,1.50
2022-08-21T18:31:43.635Z,1.50
2022-08-21T18:34:20.307Z,1.73
2022-08-21T18:36:49.074Z,1.65
2022-08-21T18:39:35.951Z,1.30
2022-08-21T18:42:10.059Z,0.80
2022-08-21T18:44:39.330Z,1.20
2022-08-21T18:47:11.519Z,1.60
2022-08-21T18:49:41.585Z,1.27
2022-08-21T18:52:09.979Z,1.20
2022-08-21T18:54:44.451Z,1.70
2022-08-21T18:57:14.739Z,1.42
2022-08-21T18:59:43.954Z,1.70
2022-08-21T19:02:12.425Z,1.45
2022-08-21T19:04:44.825Z,1.48
2022-08-21T19:07:14.686Z,1.83
2022-08-21T19:09:56.845Z,1.73
2022-08-21T19:12:29.640Z,2.72
2022-08-21T19:14:59.475Z,1.63
2022-08-21T19:17:29.049Z,1.10
2022-08-21T19:20:03.521Z,0.80
2022-08-21T19:22:31.767Z,0.85
2022-08-21T19:24:59.964Z,1.00
2022-08-21T19:27:29.526Z,1.00
2022-08-21T19:29:57.921Z,1.20
2022-08-21T19:32:27.813Z,1.20
2022-08-21T19:34:56.318Z,1.00
2022-08-21T19:37:26.904Z,0.93
2022-08-21T19:39:56.062Z,1.55
2022-08-21T19:42:28.780Z,1.00
2022-08-21T19:45:15.206Z,0.85
2022-08-21T19:47:47.955Z,1.02
2022-08-21T19:53:05.187Z,0.90
2022-08-21T19:55:44.600Z,1.27
2022-08-21T19:58:25.075Z,1.02
2022-08-21T20:00:54.653Z,1.15
2022-08-21T20:03:23.056Z,1.55
2022-08-21T20:05:51.183Z,1.00
2022-08-21T20:08:22.240Z,1.48
2022-08-21T20:10:58.072Z,1.60
2022-08-21T20:13:26.647Z,1.85
2022-08-21T20:15:56.246Z,1.20
2022-08-21T20:18:27.038Z,1.20
2022-08-21T20:20:55.611Z,1.13
2022-08-21T20:23:29.822Z,1.20
2022-08-21T20:25:58.950Z,0.57
2022-08-21T20:28:27.230Z,1.02
2022-08-21T20:30:58.409Z,0.93
2022-08-21T20:33:26.844Z,0.85
2022-08-21T20:35:55.118Z,0.70
2022-08-21T20:38:23.805Z,0.60
2022-08-21T20:40:54.894Z,0.73
2022-08-21T20:43:23.956Z,0.70
2022-08-21T20:45:52.438Z,0.93
2022-08-21T20:49:00.823Z,0.93
2022-08-21T20:51:41.458Z,0.50
2022-08-21T20:54:19.615Z,1.02
2022-08-21T20:56:53.167Z,0.80
2022-08-21T20:59:40.076Z,0.98
2022-08-21T21:02:21.882Z,0.90
2022-08-21T21:07:27.345Z,0.60
2022-08-21T21:09:58.421Z,0.85
2022-08-21T21:12:32.699Z,0.67
2022-08-21T21:15:06.210Z,1.05
2022-08-21T21:17:43.000Z,0.60
2022-08-21T21:20:17.294Z,0.73
2022-08-21T21:22:50.422Z,0.90
2022-08-21T21:25:23.624Z,0.75
2022-08-21T21:27:58.727Z,0.70
2022-08-21T21:30:32.263Z,0.73
2022-08-21T21:33:00.774Z,1.08
2022-08-21T21:35:38.366Z,1.20
2022-08-21T21:38:17.831Z,0.90
2022-08-21T21:40:54.667Z,0.88
2022-08-21T21:43:36.516Z,0.70
2022-08-21T21:46:17.063Z,0.80
2022-08-21T21:49:21.532Z,0.68
2022-08-21T21:52:00.952Z,0.63
2022-08-21T21:54:52.053Z,0.73
2022-08-21T21:57:32.259Z,0.73
2022-08-21T22:00:09.632Z,0.68
2022-08-21T22:02:50.032Z,0.80
2022-08-21T22:05:27.855Z,0.70
2022-08-21T22:08:07.777Z,0.60
2022-08-21T22:10:44.968Z,0.88
2022-08-21T22:13:26.197Z,0.60
2022-08-21T22:15:55.534Z,0.70
2022-08-21T22:18:27.560Z,0.70
2022-08-21T22:20:58.498Z,0.88
2022-08-21T22:23:32.563Z,0.50
2022-08-21T22:26:07.483Z,0.70
2022-08-21T22:28:40.122Z,0.55
2022-08-21T22:31:21.769Z,0.60
2022-08-21T22:34:03.031Z,0.60
2022-08-21T22:36:34.020Z,0.77
2022-08-21T22:39:03.936Z,1.08
2022-08-21T22:41:38.758Z,1.13
2022-08-21T22:44:12.076Z,0.73
2022-08-21T22:46:46.132Z,0.70
2022-08-21T22:49:29.375Z,0.70
2022-08-21T22:52:10.711Z,0.82
2022-08-21T22:54:42.289Z,1.10
2022-08-21T22:57:23.139Z,1.00
2022-08-21T22:59:57.372Z,0.60
2022-08-21T23:02:35.591Z,0.88
2022-08-21T23:05:16.419Z,0.77
2022-08-21T23:07:49.879Z,1.17
2022-08-21T23:10:26.251Z,0.90
2022-08-21T23:13:02.071Z,1.05
2022-08-21T23:15:41.822Z,0.70
2022-08-21T23:18:17.762Z,1.20
2022-08-21T23:20:56.314Z,0.70
2022-08-21T23:23:28.141Z,0.77
2022-08-21T23:26:22.914Z,0.85
2022-08-21T23:29:07.706Z,0.70
2022-08-21T23:31:42.388Z,0.82
2022-08-21T23:34:22.100Z,1.13
2022-08-21T23:40:51.191Z,0.85
2022-08-21T23:43:37.669Z,1.10
2022-08-21T23:46:33.982Z,0.90
2022-08-21T23:49:13.387Z,1.00
2022-08-21T23:51:58.110Z,0.70
2022-08-21T23:54:32.687Z,0.98
2022-08-21T23:57:08.944Z,1.17
2022-08-21T23:59:47.653Z,0.93
